Time;durP1;ratioP1;P1;durP2;ratioP2;P2;SDS_P1;SDS_P2;PMS_P1;PMS_P2;Temp;Humidity;BMP_temperature;BMP_pressure;BME280_temperature;BME280_humidity;BME280_pressure;Samples;Min_cycle;Max_cycle;Signal;HPM_P1;HPM_P2
2022/08/02 00:06:50;;;;;;;6.13;2.78;;;;;;;18.42;100.00;99574.19;31380588;28;20151;-77
2022/08/02 00:21:52;;;;;;;2.58;1.65;;;;;;;18.44;100.00;99597.69;31382332;28;20052;-79
2022/08/02 00:36:54;;;;;;;12.15;6.15;;;;;;;18.36;100.00;99564.41;31355557;28;20055;-77
2022/08/02 00:51:56;;;;;;;26.52;16.80;;;;;;;18.39;100.00;99568.94;31339310;28;20114;-77
2022/08/02 01:07:00;;;;;;;30.95;17.77;;;;;;;18.45;100.00;99561.47;31348446;28;20565;-77
2022/08/02 01:22:07;;;;;;;;;;;;;;;18.33;100.00;99526.91;31365346;28;20140;-77
2022/08/02 01:37:27;;;;;;;5.85;2.97;;;;;;;18.31;100.00;99512.91;31332138;28;19972;-76
2022/08/02 01:52:34;;;;;;;4.20;2.30;;;;;;;18.40;100.00;99504.50;31337716;28;20525;-76
2022/08/02 02:07:37;;;;;;;3.63;2.25;;;;;;;18.49;100.00;99545.53;31351613;28;20055;-77
2022/08/02 02:22:40;;;;;;;4.60;3.03;;;;;;;18.49;100.00;99529.03;31355506;28;20068;-77
2022/08/02 02:37:44;;;;;;;7.70;3.40;;;;;;;18.45;100.00;99553.25;31385726;28;20060;-79
2022/08/02 02:52:47;;;;;;;7.38;3.72;;;;;;;18.42;100.00;99578.97;31383051;28;20045;-78
2022/08/02 03:07:49;;;;;;;4.70;2.80;;;;;;;18.47;100.00;99604.97;31361142;28;20052;-77
2022/08/02 03:22:51;;;;;;;5.13;3.03;;;;;;;18.54;100.00;99613.56;31357959;28;20386;-78
2022/08/02 03:37:56;;;;;;;6.30;3.90;;;;;;;18.63;100.00;99605.19;31347950;28;20458;-77
2022/08/02 03:53:00;;;;;;;7.05;4.25;;;;;;;18.87;100.00;99579.41;31360924;28;20059;-76
2022/08/02 04:08:02;;;;;;;7.50;4.53;;;;;;;19.23;100.00;99567.66;31360094;28;21301;-78
2022/08/02 04:23:25;;;;;;;6.07;4.47;;;;;;;19.71;100.00;99545.69;31376260;28;20564;-79
2022/08/02 04:38:27;;;;;;;7.38;4.88;;;;;;;20.20;100.00;99556.63;31385540;28;20091;-77
2022/08/02 04:53:29;;;;;;;6.90;5.22;;;;;;;20.75;100.00;99545.69;31377340;28;20426;-77
2022/08/02 05:08:31;;;;;;;8.05;5.38;;;;;;;21.31;100.00;99573.25;31342945;28;20060;-80
2022/08/02 05:23:33;;;;;;;6.53;4.80;;;;;;;21.80;100.00;99570.88;31352960;28;20491;-77
2022/08/02 05:38:36;;;;;;;5.75;4.55;;;;;;;22.50;100.00;99575.06;31354735;28;20056;-78
2022/08/02 05:53:44;;;;;;;;;;;;;;;23.13;99.59;99554.72;31337167;28;20048;-75
2022/08/02 06:08:54;;;;;;;7.63;4.22;;;;;;;23.56;100.00;99584.53;31356545;28;19970;-78
2022/08/02 06:23:58;;;;;;;3.17;2.50;;;;;;;24.11;100.00;99578.28;31330261;28;20052;-77
2022/08/02 06:39:07;;;;;;;;;;;;;;;24.50;89.04;99585.34;31335702;28;20052;-79
2022/08/02 06:54:10;;;;;;;7.28;3.92;;;;;;;25.25;82.82;99596.28;31336201;28;20031;-78
2022/08/02 07:09:12;;;;;;;6.32;3.15;;;;;;;26.23;72.49;99595.38;31353274;28;20042;-78
2022/08/02 07:24:22;;;;;;;4.05;2.55;;;;;;;26.84;79.80;99600.34;31370676;28;20447;-78
2022/08/02 07:39:25;;;;;;;5.32;3.22;;;;;;;27.38;65.26;99611.94;31390641;28;20080;-86
2022/08/02 07:54:30;;;;;;;4.93;2.92;;;;;;;27.69;66.96;99610.13;31356362;28;20049;-76
2022/08/02 08:09:33;;;;;;;3.97;3.08;;;;;;;28.30;67.96;99599.28;31350994;28;20055;-75
2022/08/02 08:24:35;;;;;;;5.25;3.28;;;;;;;29.18;62.75;99604.06;31335958;28;20053;-78
2022/08/02 08:39:37;;;;;;;4.10;3.08;;;;;;;29.48;58.52;99614.50;31384323;28;20053;-86
2022/08/02 08:54:59;;;;;;;5.45;3.45;;;;;;;27.79;67.21;99636.22;31385148;28;20056;-83
2022/08/02 09:10:21;;;;;;;5.43;4.10;;;;;;;27.22;72.30;99646.53;31373706;28;20076;-82
2022/08/02 09:25:23;;;;;;;5.85;4.15;;;;;;;26.87;81.75;99645.84;31361949;28;20103;-86
2022/08/02 09:40:36;;;;;;;8.10;4.10;;;;;;;27.48;69.65;99652.69;31347282;28;20314;-85
2022/08/02 09:55:40;;;;;;;8.40;3.65;;;;;;;27.30;83.75;99664.09;31344856;28;20049;-77
2022/08/02 10:10:44;;;;;;;5.25;4.38;;;;;;;26.93;84.92;99662.44;31372015;28;20051;-76
2022/08/02 10:25:47;;;;;;;5.93;4.40;;;;;;;27.27;86.75;99659.59;31370778;28;20048;-77
2022/08/02 10:40:54;;;;;;;4.60;3.80;;;;;;;27.01;87.36;99654.91;31338199;28;20063;-77
2022/08/02 10:56:03;;;;;;;6.43;4.38;;;;;;;26.81;77.23;99665.47;31345866;28;20044;-78
2022/08/02 11:11:08;;;;;;;8.35;6.88;;;;;;;27.25;78.50;99657.34;31337702;28;20147;-78
2022/08/02 11:26:32;;;;;;;5.55;4.72;;;;;;;27.61;68.46;99634.44;31380837;28;20073;-83
2022/08/02 11:41:43;;;;;;;7.00;4.95;;;;;;;26.37;80.48;99644.19;31405532;28;20463;-89
2022/08/02 11:56:48;;;;;;;;;;;;;;;25.43;79.74;99631.56;31386509;28;20126;-85
2022/08/02 12:11:50;;;;;;;9.30;5.90;;;;;;;25.19;83.62;99595.63;31368681;28;19959;-82
2022/08/02 12:26:56;;;;;;;11.48;8.70;;;;;;;25.89;81.49;99573.13;31360726;28;20768;-84
2022/08/02 12:41:58;;;;;;;6.35;5.25;;;;;;;26.10;89.51;99566.34;31373123;28;20097;-82
2022/08/02 12:57:12;;;;;;;11.23;5.07;;;;;;;26.48;82.90;99571.59;31368932;28;20061;-80
2022/08/02 13:12:16;;;;;;;7.55;5.63;;;;;;;26.36;87.12;99553.66;31347221;28;20377;-82
2022/08/02 13:27:19;;;;;;;7.38;6.28;;;;;;;26.24;84.45;99569.06;31325111;28;20053;-79
2022/08/02 13:42:22;;;;;;;9.05;6.50;;;;;;;26.55;91.73;99579.28;31358958;28;20049;-76
2022/08/02 13:57:24;;;;;;;8.48;6.28;;;;;;;26.47;91.47;99586.78;31350919;28;21250;-75
2022/08/02 14:12:25;;;;;;;8.57;7.35;;;;;;;26.36;74.35;99603.75;31339472;28;20053;-77
2022/08/02 14:28:11;;;;;;;11.55;10.30;;;;;;;26.10;73.39;99610.84;31392082;28;20064;-91
2022/08/02 14:44:02;;;;;;;9.90;7.80;;;;;;;26.40;72.67;99604.16;31364990;28;20149;-79
2022/08/02 14:58:35;;;;;;;;;;;;;;;26.26;71.95;99616.56;31371764;28;20422;-81
2022/08/02 15:13:44;;;;;;;9.97;7.40;;;;;;;26.45;77.48;99626.31;31401443;28;19928;-83
2022/08/02 15:28:47;;;;;;;12.15;8.30;;;;;;;26.40;87.26;99618.09;31352328;28;20145;-78
2022/08/02 15:43:56;;;;;;;14.88;8.52;;;;;;;26.14;88.76;99614.03;31382491;28;20045;-84
2022/08/02 15:59:02;;;;;;;9.48;7.88;;;;;;;25.85;91.13;99612.38;31389232;28;20045;-78
2022/08/02 16:14:04;;;;;;;11.75;8.13;;;;;;;25.63;92.21;99591.31;31348941;28;20051;-76
2022/08/02 16:29:06;;;;;;;10.48;8.02;;;;;;;25.42;94.22;99616.19;31360356;28;20533;-76
2022/08/02 16:44:09;;;;;;;12.10;8.07;;;;;;;25.24;95.95;99619.03;31357952;28;20441;-77
2022/08/02 16:59:14;;;;;;;9.32;8.25;;;;;;;25.05;94.53;99638.53;31412361;28;20127;-79
2022/08/02 17:14:16;;;;;;;14.82;8.45;;;;;;;24.84;97.29;99646.66;31384315;28;20566;-78
2022/08/02 17:29:18;;;;;;;9.98;7.88;;;;;;;24.74;98.64;99649.06;31415354;28;20055;-79
2022/08/02 17:44:20;;;;;;;;;;;;;;;24.59;91.80;99656.34;31400735;28;20080;-78
2022/08/02 17:59:38;;;;;;;13.52;11.18;;;;;;;24.55;100.00;99659.44;31365912;28;19931;-79
2022/08/02 18:14:44;;;;;;;16.48;10.48;;;;;;;24.36;98.81;99678.09;31368132;28;20088;-79
2022/08/02 18:29:50;;;;;;;14.02;10.48;;;;;;;24.09;100.00;99669.56;31361909;28;20084;-78
2022/08/02 18:45:05;;;;;;;13.15;9.77;;;;;;;23.82;100.00;99651.25;31343316;28;20079;-78
2022/08/02 19:00:09;;;;;;;10.32;9.20;;;;;;;23.84;100.00;99654.25;31338533;28;20439;-79
2022/08/02 19:15:15;;;;;;;12.82;10.57;;;;;;;23.85;100.00;99661.28;31340649;28;20131;-79
2022/08/02 19:30:18;;;;;;;13.20;9.40;;;;;;;23.76;100.00;99658.84;31384274;28;20140;-80
2022/08/02 19:45:23;;;;;;;11.05;9.15;;;;;;;23.41;100.00;99657.63;31368641;28;20102;-81
2022/08/02 20:00:45;;;;;;;11.88;9.40;;;;;;;23.22;100.00;99650.50;31388805;28;20118;-79
2022/08/02 20:15:47;;;;;;;16.70;10.60;;;;;;;22.94;100.00;99664.56;31413398;28;20376;-77
2022/08/02 20:30:57;;;;;;;15.00;10.07;;;;;;;22.72;100.00;99677.25;31357856;28;20080;-83
2022/08/02 20:46:08;;;;;;;11.52;7.25;;;;;;;21.72;100.00;99647.25;31366989;28;20156;-79
2022/08/02 21:01:10;;;;;;;13.03;8.50;;;;;;;21.04;100.00;99634.72;31344635;28;20057;-80
2022/08/02 21:16:12;;;;;;;15.52;9.18;;;;;;;21.15;100.00;99637.50;31352515;28;20360;-80
2022/08/02 21:31:20;;;;;;;19.30;10.38;;;;;;;20.96;100.00;99625.44;31341218;28;20147;-81
2022/08/02 21:46:22;;;;;;;14.13;10.20;;;;;;;21.09;100.00;99611.91;31341054;28;20064;-80
2022/08/02 22:01:28;;;;;;;15.93;10.07;;;;;;;21.30;100.00;99610.41;31336767;28;20083;-81
2022/08/02 22:16:32;;;;;;;;;;;;;;;21.36;100.00;99619.44;31297257;28;20056;-81
2022/08/02 22:31:34;;;;;;;15.88;11.27;;;;;;;21.53;100.00;99599.31;31340707;28;20334;-79
2022/08/02 22:46:42;;;;;;;15.57;11.13;;;;;;;21.74;100.00;99617.09;31321410;28;20118;-80
2022/08/02 23:01:45;;;;;;;17.27;10.70;;;;;;;21.34;100.00;99621.94;31372115;28;20969;-80
2022/08/02 23:32:07;;;;;;;16.95;10.90;;;;;;;21.20;100.00;99616.66;31364414;28;20417;-79
2022/08/02 23:47:09;;;;;;;16.92;11.95;;;;;;;21.21;100.00;99621.72;31362892;28;20413;-80
